Time;durP1;ratioP1;P1;durP2;ratioP2;P2;SDS_P1;SDS_P2;PMS_P1;PMS_P2;Temp;Humidity;BMP_temperature;BMP_pressure;BME280_temperature;BME280_humidity;BME280_pressure;Samples;Min_cycle;Max_cycle;Signal;HPM_P1;HPM_P2
2021/01/05 00:00:29;;;;;;;17.73;13.00;;;;;;;1.25;74.21;94847.63;5075759;28;20204;-82
2021/01/05 00:02:56;;;;;;;17.93;12.53;;;;;;;1.17;75.08;94848.28;5093322;28;20882;-80
2021/01/05 00:05:22;;;;;;;16.47;12.60;;;;;;;1.16;75.56;94840.81;5086783;28;20189;-79
2021/01/05 00:07:49;;;;;;;19.33;13.40;;;;;;;1.20;75.33;94847.22;5092403;28;20200;-80
2021/01/05 00:10:15;;;;;;;17.53;12.80;;;;;;;1.34;74.97;94849.34;5088177;28;20238;-80
2021/01/05 00:12:41;;;;;;;19.97;13.13;;;;;;;1.48;74.61;94850.63;5072462;28;20224;-81
2021/01/05 00:15:10;;;;;;;17.93;12.93;;;;;;;1.59;74.23;94851.22;5090199;28;20724;-80
2021/01/05 00:17:36;;;;;;;19.23;13.50;;;;;;;1.64;73.66;94853.34;5092434;28;20205;-80
2021/01/05 00:20:09;;;;;;;18.07;13.37;;;;;;;1.66;74.00;94854.81;5078997;28;20209;-80
2021/01/05 00:22:34;;;;;;;19.33;13.47;;;;;;;1.58;73.29;94852.16;5091103;28;20722;-80
2021/01/05 00:25:00;;;;;;;20.63;14.00;;;;;;;1.48;74.44;94859.03;5075379;28;20204;-80
2021/01/05 00:27:26;;;;;;;19.77;13.37;;;;;;;1.44;74.67;94855.16;5072085;28;20205;-80
2021/01/05 00:29:52;;;;;;;19.40;13.50;;;;;;;1.47;74.91;94854.09;5084778;28;20194;-80
2021/01/05 00:32:21;;;;;;;18.67;13.57;;;;;;;1.52;75.17;94850.22;5085361;28;20196;-80
2021/01/05 00:34:48;;;;;;;21.17;13.57;;;;;;;1.62;74.43;94861.09;5070977;28;20197;-80
2021/01/05 00:37:16;;;;;;;19.47;13.50;;;;;;;1.68;73.94;94854.69;5079354;28;20189;-80
2021/01/05 00:39:42;;;;;;;18.50;13.47;;;;;;;1.73;73.57;94855.84;5082025;28;20215;-80
2021/01/05 00:42:08;;;;;;;20.67;13.43;;;;;;;1.49;74.44;94859.84;5071304;28;20205;-80
2021/01/05 00:44:35;;;;;;;20.20;14.57;;;;;;;1.40;74.96;94856.38;5075637;28;20192;-80
2021/01/05 00:47:01;;;;;;;21.97;14.07;;;;;;;1.32;74.81;94861.34;5074034;28;20726;-80
2021/01/05 00:49:27;;;;;;;20.97;14.30;;;;;;;1.42;75.09;94866.38;5075054;28;20188;-80
2021/01/05 00:51:53;;;;;;;19.63;13.80;;;;;;;1.50;74.62;94872.38;5076815;28;20189;-80
2021/01/05 00:54:19;;;;;;;21.63;14.20;;;;;;;1.61;74.30;94872.19;5073850;28;20857;-80
2021/01/05 00:56:58;;;;;;;19.73;14.00;;;;;;;1.65;74.00;94870.19;5090772;28;20212;-80
2021/01/05 00:59:24;;;;;;;21.87;13.97;;;;;;;1.53;74.32;94872.09;5084305;28;20213;-80
2021/01/05 01:01:50;;;;;;;20.53;14.63;;;;;;;1.51;74.36;94875.72;5071308;28;20200;-80
2021/01/05 01:04:16;;;;;;;19.80;13.97;;;;;;;1.54;74.44;94871.13;5075618;28;20220;-81
2021/01/05 01:06:42;;;;;;;19.50;13.87;;;;;;;1.45;74.63;94876.25;5091382;28;20196;-81
2021/01/05 01:09:10;;;;;;;20.90;14.10;;;;;;;1.35;75.10;94871.19;5072326;28;20193;-80
2021/01/05 01:11:37;;;;;;;19.83;13.77;;;;;;;1.23;74.95;94870.56;5070741;28;20212;-80
2021/01/05 01:14:04;;;;;;;21.23;13.97;;;;;;;1.29;74.91;94877.63;5084134;28;20208;-82
2021/01/05 01:16:29;;;;;;;21.13;14.47;;;;;;;1.25;74.34;94872.97;5071384;28;20212;-80
2021/01/05 01:18:55;;;;;;;18.53;13.40;;;;;;;1.11;74.80;94870.88;5085210;28;20261;-80
2021/01/05 01:21:21;;;;;;;21.33;14.37;;;;;;;1.01;75.68;94870.88;5090551;28;20204;-80
2021/01/05 01:23:47;;;;;;;20.20;13.87;;;;;;;1.11;75.32;94869.16;5076039;28;20730;-80
2021/01/05 01:26:13;;;;;;;21.23;14.30;;;;;;;1.10;75.02;94864.22;5070735;28;20200;-80
2021/01/05 01:28:41;;;;;;;20.83;13.93;;;;;;;1.12;75.21;94868.22;5071477;28;20364;-80
2021/01/05 01:31:07;;;;;;;21.93;14.73;;;;;;;1.18;75.06;94874.44;5070377;28;20273;-81
2021/01/05 01:33:32;;;;;;;21.37;14.77;;;;;;;1.00;75.55;94867.53;5071892;28;20217;-81
2021/01/05 01:35:58;;;;;;;20.33;14.03;;;;;;;1.03;75.82;94859.66;5071308;28;20205;-80
2021/01/05 01:38:24;;;;;;;20.73;14.23;;;;;;;0.93;76.50;94863.97;5080146;28;20212;-80
2021/01/05 01:40:50;;;;;;;21.87;15.20;;;;;;;0.98;76.14;94866.06;5089153;28;20192;-80
2021/01/05 01:43:16;;;;;;;24.90;15.17;;;;;;;1.02;75.69;94867.41;5090552;28;20251;-79
2021/01/05 01:45:43;;;;;;;19.73;14.17;;;;;;;1.17;74.94;94867.78;5083297;28;20718;-79
2021/01/05 01:48:10;;;;;;;20.83;14.43;;;;;;;1.27;74.56;94866.84;5070502;28;20201;-80
2021/01/05 01:50:37;;;;;;;21.30;14.27;;;;;;;1.30;73.76;94868.31;5071315;28;20836;-80
2021/01/05 01:53:33;;;;;;;21.37;13.33;;;;;;;1.24;73.63;94864.56;5070506;28;20270;-80
2021/01/05 01:56:23;;;;;;;20.07;14.53;;;;;;;1.08;74.97;94866.06;5069884;28;20207;-80
2021/01/05 01:58:58;;;;;;;23.77;15.10;;;;;;;1.09;75.09;94860.88;5070243;28;20608;-80
2021/01/05 02:01:52;;;;;;;21.87;14.20;;;;;;;1.11;74.72;94858.22;5070333;28;20200;-80
2021/01/05 02:04:45;;;;;;;22.90;14.00;;;;;;;1.13;74.86;94858.88;5067364;28;20224;-80
2021/01/05 02:07:22;;;;;;;20.47;13.80;;;;;;;1.28;74.49;94862.56;5069870;28;20664;-80
2021/01/05 02:10:12;;;;;;;22.57;14.33;;;;;;;1.40;73.19;94861.44;5070008;28;20618;-80
2021/01/05 02:12:52;;;;;;;20.63;14.30;;;;;;;1.38;73.19;94863.31;5070019;28;20216;-80
2021/01/05 02:15:31;;;;;;;23.53;14.50;;;;;;;1.21;73.51;94857.22;5069850;28;20196;-81
2021/01/05 02:18:13;;;;;;;22.50;14.83;;;;;;;1.18;74.57;94861.78;5070135;28;20193;-79
2021/01/05 02:20:44;;;;;;;22.20;14.50;;;;;;;1.15;74.75;94857.81;5070003;28;20200;-80
2021/01/05 02:23:28;;;;;;;22.77;15.07;;;;;;;1.25;74.91;94857.75;5070069;28;20216;-81
2021/01/05 02:26:00;;;;;;;21.80;14.73;;;;;;;1.38;74.25;94853.19;5069534;28;20629;-80
2021/01/05 02:28:34;;;;;;;21.80;14.30;;;;;;;1.48;73.41;94851.44;5070254;28;20196;-80
2021/01/05 02:31:10;;;;;;;21.97;15.57;;;;;;;1.48;73.46;94853.16;5069259;28;20229;-79
2021/01/05 02:33:46;;;;;;;22.13;14.27;;;;;;;1.50;73.21;94854.63;5069395;28;20212;-80
2021/01/05 02:36:44;;;;;;;26.70;15.17;;;;;;;1.43;73.04;94856.09;5069632;28;20197;-80
2021/01/05 02:39:43;;;;;;;22.83;15.03;;;;;;;1.48;72.83;94848.88;5069868;28;20224;-80
2021/01/05 02:42:37;;;;;;;26.50;15.47;;;;;;;1.49;73.42;94849.69;5070388;28;20197;-79
2021/01/05 02:45:12;;;;;;;23.00;15.00;;;;;;;1.49;72.78;94854.75;5069655;28;20219;-80
2021/01/05 02:47:57;;;;;;;26.13;15.20;;;;;;;1.43;73.00;94843.44;5070002;28;20234;-80
2021/01/05 02:50:48;;;;;;;20.77;14.30;;;;;;;1.29;72.87;94848.94;5069997;28;20225;-79
2021/01/05 02:53:41;;;;;;;23.27;14.63;;;;;;;1.22;73.63;94836.00;5069507;28;20602;-80
2021/01/05 02:56:55;;;;;;;25.17;14.73;;;;;;;1.27;72.99;94840.69;5072309;28;20208;-80
2021/01/05 02:59:51;;;;;;;22.37;15.07;;;;;;;1.37;72.59;94837.16;5073147;28;20208;-80
2021/01/05 03:02:53;;;;;;;22.47;13.80;;;;;;;1.26;72.86;94834.00;5073023;28;20201;-78
2021/01/05 03:05:19;;;;;;;23.87;15.37;;;;;;;1.15;72.80;94839.25;5073157;28;20211;-79
2021/01/05 03:07:47;;;;;;;23.07;15.00;;;;;;;1.20;72.89;94832.81;5091545;28;20200;-80
2021/01/05 03:10:25;;;;;;;22.23;14.00;;;;;;;0.98;73.45;94830.59;5093242;28;20200;-80
2021/01/05 03:13:22;;;;;;;22.33;14.40;;;;;;;1.03;73.47;94831.78;5074572;28;20289;-80
2021/01/05 03:15:55;;;;;;;21.07;13.80;;;;;;;1.21;73.52;94836.16;5071601;28;20696;-80
2021/01/05 03:18:31;;;;;;;22.30;14.83;;;;;;;1.32;72.89;94836.81;5087941;28;20197;-81
2021/01/05 03:21:01;;;;;;;22.90;15.30;;;;;;;1.31;72.92;94845.34;5074073;28;20571;-80
2021/01/05 03:23:31;;;;;;;26.13;14.83;;;;;;;1.25;73.20;94840.00;5093377;28;20638;-80
2021/01/05 03:26:00;;;;;;;23.33;15.13;;;;;;;1.18;73.13;94837.22;5092300;28;20200;-80
2021/01/05 03:28:28;;;;;;;22.17;14.70;;;;;;;1.04;74.25;94835.94;5072946;28;20620;-80
2021/01/05 03:30:59;;;;;;;22.47;14.43;;;;;;;1.02;74.15;94842.88;5086282;28;20199;-80
2021/01/05 03:33:25;;;;;;;22.03;15.43;;;;;;;1.02;74.65;94837.00;5085165;28;20220;-80
2021/01/05 03:35:51;;;;;;;24.33;15.87;;;;;;;1.14;73.77;94846.06;5072753;28;20200;-81
2021/01/05 03:38:17;;;;;;;22.77;14.93;;;;;;;1.28;73.43;94834.66;5078400;28;20627;-80
2021/01/05 03:40:43;;;;;;;22.63;14.53;;;;;;;1.28;73.50;94834.66;5081734;28;20188;-80
2021/01/05 03:43:09;;;;;;;21.63;14.30;;;;;;;1.23;73.36;94834.28;5077220;28;20219;-80
2021/01/05 03:45:35;;;;;;;21.03;13.97;;;;;;;1.31;73.32;94842.00;5093407;28;20246;-78
2021/01/05 03:48:02;;;;;;;21.03;13.57;;;;;;;1.41;72.88;94839.44;5090485;28;20197;-79
2021/01/05 03:50:28;;;;;;;20.17;14.57;;;;;;;1.41;72.16;94836.88;5072494;28;20197;-80
2021/01/05 03:52:54;;;;;;;21.40;14.20;;;;;;;1.36;72.47;94835.56;5073152;28;20217;-80
2021/01/05 03:55:20;;;;;;;23.70;14.67;;;;;;;1.37;72.60;94836.38;5091909;28;20569;-80
2021/01/05 03:57:47;;;;;;;21.20;14.40;;;;;;;1.33;72.69;94835.06;5081328;28;21808;-80
2021/01/05 04:00:17;;;;;;;22.67;15.03;;;;;;;1.38;72.37;94831.16;5080922;28;20228;-80
2021/01/05 04:02:44;;;;;;;24.33;15.00;;;;;;;1.44;72.14;94834.09;5072290;28;20223;-80
2021/01/05 04:05:13;;;;;;;22.07;14.97;;;;;;;1.49;71.99;94831.94;5073003;28;20197;-80
2021/01/05 04:07:39;;;;;;;24.57;15.27;;;;;;;1.51;72.15;94830.84;5077152;28;20199;-81
2021/01/05 04:10:07;;;;;;;21.97;14.03;;;;;;;1.39;71.10;94835.28;5092399;28;20207;-80
2021/01/05 04:12:32;;;;;;;21.17;13.87;;;;;;;1.33;71.88;94840.13;5079896;28;20217;-80
2021/01/05 04:14:58;;;;;;;22.57;14.27;;;;;;;1.19;72.14;94835.50;5071921;28;20550;-80
2021/01/05 04:17:24;;;;;;;22.70;15.13;;;;;;;1.24;72.40;94841.75;5082355;28;20199;-78
2021/01/05 04:19:50;;;;;;;20.43;14.10;;;;;;;1.25;71.85;94845.09;5091713;28;20262;-80
2021/01/05 04:22:17;;;;;;;20.03;13.97;;;;;;;1.23;71.54;94840.16;5083074;28;20258;-80
2021/01/05 04:24:43;;;;;;;21.00;13.57;;;;;;;1.08;72.00;94839.00;5072988;28;20684;-80
2021/01/05 04:27:09;;;;;;;21.97;14.53;;;;;;;1.04;72.05;94843.53;5091577;28;20257;-80
2021/01/05 04:29:35;;;;;;;21.20;13.93;;;;;;;1.03;72.68;94849.53;5091989;28;20218;-80
2021/01/05 04:32:01;;;;;;;19.23;13.43;;;;;;;0.92;72.44;94846.38;5091226;28;20208;-80
2021/01/05 04:34:27;;;;;;;20.30;13.73;;;;;;;0.89;72.74;94846.63;5081754;28;20224;-78
2021/01/05 04:36:53;;;;;;;17.63;12.50;;;;;;;0.95;72.56;94849.44;5071352;28;20209;-81
2021/01/05 04:39:19;;;;;;;19.23;13.20;;;;;;;1.11;72.57;94853.13;5072492;28;20221;-80
2021/01/05 04:41:52;;;;;;;18.50;12.80;;;;;;;1.24;71.82;94848.56;5072672;28;20203;-80
2021/01/05 04:44:18;;;;;;;19.70;12.77;;;;;;;1.23;70.97;94852.03;5091651;28;20227;-80
2021/01/05 04:46:57;;;;;;;19.97;13.20;;;;;;;1.28;70.74;94854.97;5079534;28;20196;-79
2021/01/05 04:49:38;;;;;;;23.70;14.60;;;;;;;1.30;70.66;94858.16;5071827;28;20197;-80
2021/01/05 04:52:09;;;;;;;22.07;13.83;;;;;;;1.38;70.64;94863.31;5073107;28;20258;-80
2021/01/05 04:54:41;;;;;;;22.03;14.20;;;;;;;1.46;70.50;94857.56;5071012;28;20741;-80
2021/01/05 04:57:19;;;;;;;20.40;13.73;;;;;;;1.42;70.60;94862.13;5084764;28;20227;-79
2021/01/05 04:59:47;;;;;;;22.03;14.60;;;;;;;1.35;70.20;94854.25;5071282;28;20269;-80
2021/01/05 05:02:22;;;;;;;21.33;13.93;;;;;;;1.41;70.68;94852.91;5084625;28;20199;-79
2021/01/05 05:04:55;;;;;;;21.00;13.87;;;;;;;1.43;70.90;94856.09;5080745;28;20197;-80
2021/01/05 05:07:36;;;;;;;21.57;14.80;;;;;;;1.51;70.43;94852.88;5071026;28;20203;-80
2021/01/05 05:10:09;;;;;;;22.27;14.67;;;;;;;1.54;69.95;94847.53;5081797;28;20199;-80
2021/01/05 05:12:40;;;;;;;21.10;14.80;;;;;;;1.61;70.08;94851.91;5090834;28;20918;-80
2021/01/05 05:15:30;;;;;;;20.17;13.43;;;;;;;1.51;69.80;94860.50;5079720;28;20581;-80
2021/01/05 05:18:10;;;;;;;21.63;15.23;;;;;;;1.44;69.99;94861.97;5076441;28;20192;-80
2021/01/05 05:21:00;;;;;;;22.33;14.40;;;;;;;1.39;70.23;94865.72;5075486;28;20219;-80
2021/01/05 05:23:37;;;;;;;21.60;14.23;;;;;;;1.41;70.58;94863.03;5080624;28;20787;-80
2021/01/05 05:26:08;;;;;;;21.47;14.37;;;;;;;1.39;69.94;94870.00;5090643;28;20258;-80
2021/01/05 05:28:41;;;;;;;20.53;14.07;;;;;;;1.37;70.57;94872.66;5080083;28;20197;-80
2021/01/05 05:31:11;;;;;;;21.67;13.93;;;;;;;1.38;70.15;94871.72;5081452;28;20203;-81
2021/01/05 05:33:39;;;;;;;22.33;14.43;;;;;;;1.42;70.13;94874.00;5070137;28;20221;-79
2021/01/05 05:36:23;;;;;;;21.00;14.47;;;;;;;1.48;70.04;94870.91;5069720;28;20189;-82
2021/01/05 05:39:34;;;;;;;21.90;13.83;;;;;;;1.54;69.84;94870.38;5070828;28;20871;-80
2021/01/05 05:42:08;;;;;;;20.30;13.60;;;;;;;1.58;70.04;94875.00;4980250;28;20718;-81
2021/01/05 05:44:45;;;;;;;23.40;14.67;;;;;;;1.59;70.08;94885.94;5066467;28;20226;-79
2021/01/05 05:47:16;;;;;;;21.13;13.87;;;;;;;1.59;69.48;94891.03;5078087;28;20200;-78
2021/01/05 05:49:52;;;;;;;22.57;15.07;;;;;;;1.58;69.29;94885.16;5086070;28;20261;-79
2021/01/05 05:52:30;;;;;;;21.60;14.77;;;;;;;1.44;69.83;94890.66;5088917;28;20203;-80
2021/01/05 05:55:00;;;;;;;22.20;14.37;;;;;;;1.49;70.18;94885.19;5085084;28;20215;-78
2021/01/05 05:57:35;;;;;;;22.63;14.93;;;;;;;1.48;69.63;94886.94;5076885;28;20614;-80
2021/01/05 06:00:16;;;;;;;24.47;14.70;;;;;;;1.48;69.10;94889.47;5077311;28;20273;-80
2021/01/05 06:02:42;;;;;;;21.87;14.27;;;;;;;1.46;69.53;94893.06;5080139;28;20227;-80
2021/01/05 06:05:18;;;;;;;19.40;13.37;;;;;;;1.33;69.64;94896.72;5076984;28;20212;-80
2021/01/05 06:07:44;;;;;;;21.47;14.40;;;;;;;1.34;70.04;94895.00;5071428;28;20584;-80
2021/01/05 06:10:11;;;;;;;21.03;14.47;;;;;;;1.39;70.31;94895.34;5084639;28;20189;-78
2021/01/05 06:12:38;;;;;;;22.10;14.57;;;;;;;1.46;69.68;94896.41;5076928;28;20568;-79
2021/01/05 06:15:05;;;;;;;21.60;14.30;;;;;;;1.54;69.16;94896.50;5077393;28;20200;-79
2021/01/05 06:17:31;;;;;;;22.40;14.23;;;;;;;1.56;68.82;94897.16;5073600;28;20201;-78
2021/01/05 06:19:57;;;;;;;22.17;14.40;;;;;;;1.58;69.10;94902.91;5085955;28;20212;-80
2021/01/05 06:22:23;;;;;;;34.17;23.27;;;;;;;1.62;69.94;94900.91;5074211;28;20266;-78
2021/01/05 06:24:49;;;;;;;26.43;16.37;;;;;;;1.58;70.60;94907.97;5078595;28;20203;-81
2021/01/05 06:27:15;;;;;;;23.53;15.73;;;;;;;1.57;71.27;94903.84;5085853;28;20619;-78
2021/01/05 06:29:42;;;;;;;22.07;13.83;;;;;;;1.62;69.59;94905.97;5090185;28;20687;-79
2021/01/05 06:32:08;;;;;;;21.77;14.50;;;;;;;1.66;69.02;94905.56;5077329;28;20196;-80
2021/01/05 06:34:34;;;;;;;22.93;14.50;;;;;;;1.64;69.21;94904.91;5086119;28;20220;-81
2021/01/05 06:37:00;;;;;;;21.33;14.30;;;;;;;1.67;68.73;94907.16;5084618;28;20196;-79
2021/01/05 06:39:26;;;;;;;19.73;13.20;;;;;;;1.72;68.63;94912.63;5077083;28;20212;-79
2021/01/05 06:41:52;;;;;;;20.37;13.87;;;;;;;1.73;68.20;94913.44;5089733;28;20222;-79
2021/01/05 06:44:18;;;;;;;19.57;14.20;;;;;;;1.74;68.22;94915.78;5079520;28;20220;-80
2021/01/05 06:46:48;;;;;;;22.07;14.57;;;;;;;1.67;68.55;94919.84;5082042;28;20216;-80
2021/01/05 06:49:14;;;;;;;24.53;15.20;;;;;;;1.66;68.66;94912.38;5077828;28;20188;-80
2021/01/05 06:51:39;;;;;;;22.07;14.70;;;;;;;1.70;68.62;94913.69;5075346;28;20246;-79
2021/01/05 06:54:05;;;;;;;21.73;14.37;;;;;;;1.70;68.53;94919.56;5081360;28;20224;-78
2021/01/05 06:56:31;;;;;;;22.07;14.23;;;;;;;1.77;68.51;94914.72;5076340;28;20199;-80
2021/01/05 06:58:57;;;;;;;42.60;26.40;;;;;;;1.79;68.32;94928.06;5083645;28;20289;-78
2021/01/05 07:01:23;;;;;;;26.13;17.43;;;;;;;1.82;67.85;94927.00;5077431;28;20197;-79
2021/01/05 07:03:50;;;;;;;23.77;15.93;;;;;;;1.85;67.56;94934.34;5077681;28;20213;-80
2021/01/05 07:06:16;;;;;;;22.63;14.57;;;;;;;1.88;67.47;94936.59;5089441;28;20189;-79
2021/01/05 07:08:42;;;;;;;22.23;14.27;;;;;;;1.78;67.89;94945.97;5085958;28;20453;-78
2021/01/05 07:11:08;;;;;;;21.50;14.40;;;;;;;1.82;67.67;94948.09;5083403;28;20198;-79
2021/01/05 07:13:34;;;;;;;23.07;15.43;;;;;;;1.85;67.81;94950.38;5091878;28;20216;-79
2021/01/05 07:15:59;;;;;;;21.47;13.80;;;;;;;1.86;67.65;94951.16;5073450;28;20367;-80
2021/01/05 07:18:25;;;;;;;21.87;14.70;;;;;;;1.90;68.82;94953.31;5079242;28;20192;-80
2021/01/05 07:20:52;;;;;;;21.57;14.50;;;;;;;1.95;67.76;94952.84;5086861;28;20216;-79
2021/01/05 07:23:18;;;;;;;23.97;14.57;;;;;;;1.93;67.26;94952.19;5078972;28;20228;-78
2021/01/05 07:25:45;;;;;;;20.90;14.37;;;;;;;1.88;67.04;94955.19;5087945;28;20192;-80
2021/01/05 07:28:12;;;;;;;21.60;14.03;;;;;;;1.85;67.60;94957.19;5080998;28;20569;-80
2021/01/05 07:30:38;;;;;;;20.80;13.87;;;;;;;1.90;67.58;94955.03;5082333;28;20755;-80
2021/01/05 07:33:04;;;;;;;21.73;14.73;;;;;;;1.94;67.06;94961.41;5083513;28;20220;-79
2021/01/05 07:35:30;;;;;;;22.50;14.57;;;;;;;1.97;67.52;94968.75;5076330;28;20731;-80
2021/01/05 07:37:57;;;;;;;21.27;14.40;;;;;;;1.99;67.26;94964.34;5087903;28;20204;-80
2021/01/05 07:40:25;;;;;;;24.73;15.80;;;;;;;1.98;67.25;94971.16;5076138;28;20266;-79
2021/01/05 07:42:51;;;;;;;22.13;13.83;;;;;;;1.98;67.51;94970.34;5078591;28;20213;-78
2021/01/05 07:45:19;;;;;;;57.53;37.07;;;;;;;1.94;67.83;94974.09;5084879;28;20738;-79
2021/01/05 07:47:46;;;;;;;32.30;21.40;;;;;;;1.95;67.40;94970.63;5083211;28;20610;-79
2021/01/05 07:50:19;;;;;;;22.67;15.20;;;;;;;1.94;66.91;94977.44;5085628;28;20204;-81
2021/01/05 07:52:45;;;;;;;21.33;14.87;;;;;;;1.95;67.23;94973.16;5084608;28;20562;-79
2021/01/05 07:55:14;;;;;;;22.70;14.43;;;;;;;1.98;67.39;94978.78;5079544;28;20192;-79
2021/01/05 07:57:41;;;;;;;21.70;14.50;;;;;;;2.00;66.83;94981.16;5082704;28;20196;-80
2021/01/05 08:00:09;;;;;;;18.37;13.47;;;;;;;2.00;67.10;94981.16;5080027;28;20227;-80
2021/01/05 08:02:36;;;;;;;23.87;14.27;;;;;;;1.99;67.14;94982.91;5079002;28;20578;-78
2021/01/05 08:05:03;;;;;;;22.80;14.80;;;;;;;1.90;66.54;94988.03;5086325;28;20193;-79
2021/01/05 08:07:29;;;;;;;20.87;14.30;;;;;;;1.86;66.84;94984.97;5077891;28;20192;-78
2021/01/05 08:09:55;;;;;;;22.77;14.50;;;;;;;1.88;66.92;94995.78;5086900;28;20211;-79
2021/01/05 08:12:21;;;;;;;22.10;14.33;;;;;;;1.92;67.25;94992.03;5077147;28;20568;-80
2021/01/05 08:14:48;;;;;;;20.97;14.37;;;;;;;1.93;66.77;94992.81;5088798;28;20211;-79
2021/01/05 08:17:14;;;;;;;22.70;14.10;;;;;;;1.92;66.90;94992.03;5084267;28;20283;-79
2021/01/05 08:19:42;;;;;;;24.73;15.80;;;;;;;1.94;66.93;94995.22;5074242;28;20221;-78
2021/01/05 08:22:08;;;;;;;26.77;15.37;;;;;;;1.85;67.55;94990.97;5086817;28;20236;-80
2021/01/05 08:24:34;;;;;;;33.43;22.50;;;;;;;1.88;67.92;94997.53;5078031;28;20261;-78
2021/01/05 08:27:00;;;;;;;45.83;28.23;;;;;;;1.90;67.79;95001.53;5083639;28;20203;-78
2021/01/05 08:29:28;;;;;;;26.30;16.63;;;;;;;1.92;67.65;94998.84;5076456;28;20224;-78
2021/01/05 08:31:55;;;;;;;22.90;15.37;;;;;;;1.92;67.38;95003.94;5087087;28;20193;-77
2021/01/05 08:34:21;;;;;;;23.43;14.80;;;;;;;1.90;67.13;95006.59;5071263;28;20242;-79
2021/01/05 08:36:47;;;;;;;22.63;15.07;;;;;;;1.80;67.91;95000.72;5075759;28;20197;-77
2021/01/05 08:39:13;;;;;;;24.63;14.77;;;;;;;1.77;68.03;95008.63;5083483;28;20228;-79
2021/01/05 08:41:41;;;;;;;24.13;15.03;;;;;;;1.77;67.94;95000.19;5082547;28;20196;-80
2021/01/05 08:44:07;;;;;;;23.27;15.23;;;;;;;1.80;68.06;95003.28;5069358;28;20220;-79
2021/01/05 08:46:34;;;;;;;24.50;14.93;;;;;;;1.83;67.58;95005.53;5070118;28;20189;-79
2021/01/05 08:49:00;;;;;;;22.37;14.47;;;;;;;1.79;67.64;95005.94;5070059;28;20193;-79
2021/01/05 08:51:33;;;;;;;24.13;15.70;;;;;;;1.80;67.73;95010.09;5070409;28;20228;-79
2021/01/05 08:53:59;;;;;;;23.87;14.83;;;;;;;1.83;67.97;95009.81;5069138;28;20227;-78
2021/01/05 08:56:27;;;;;;;28.20;15.90;;;;;;;1.79;67.77;95013.56;5069492;28;20204;-79
2021/01/05 08:58:53;;;;;;;23.40;15.00;;;;;;;1.84;67.52;95022.38;5081362;28;20286;-79
2021/01/05 09:01:19;;;;;;;23.30;14.83;;;;;;;1.88;67.29;95023.69;5083503;28;20255;-80
2021/01/05 09:03:47;;;;;;;22.07;11.80;;;;;;;2.32;97.84;95026.47;5071713;28;20236;-77
2021/01/05 09:06:14;;;;;;;25.50;15.00;;;;;;;2.73;85.43;95032.84;5085007;28;20189;-78
2021/01/05 09:08:40;;;;;;;19.87;13.90;;;;;;;2.77;69.66;95029.09;5078613;28;20399;-80
2021/01/05 09:11:08;;;;;;;24.47;15.27;;;;;;;2.72;67.85;95023.63;5089397;28;20197;-78
2021/01/05 09:13:37;;;;;;;22.70;15.03;;;;;;;2.58;67.03;95024.91;5072051;28;20238;-79
2021/01/05 09:16:03;;;;;;;22.70;14.90;;;;;;;2.46;66.80;95028.59;5087303;28;20188;-80
2021/01/05 09:18:29;;;;;;;23.40;14.70;;;;;;;2.35;67.23;95027.00;5082730;28;20192;-79
2021/01/05 09:20:56;;;;;;;22.30;14.47;;;;;;;2.30;66.83;95028.38;5073759;28;20226;-81
2021/01/05 09:23:23;;;;;;;22.83;14.37;;;;;;;2.07;66.59;95027.94;5079659;28;20212;-78
2021/01/05 09:25:51;;;;;;;21.17;13.67;;;;;;;2.10;67.14;95031.94;5084648;28;20608;-79
2021/01/05 09:28:17;;;;;;;20.97;14.03;;;;;;;2.04;66.81;95028.19;5080901;28;20646;-78
2021/01/05 09:30:45;;;;;;;23.50;14.67;;;;;;;2.07;67.43;95030.47;5079393;28;20670;-78
2021/01/05 09:33:11;;;;;;;20.97;13.57;;;;;;;1.90;67.19;95031.19;5082980;28;20219;-78
2021/01/05 09:35:37;;;;;;;30.47;18.33;;;;;;;1.93;66.90;95033.41;5088454;28;20192;-79
2021/01/05 09:38:08;;;;;;;31.47;20.00;;;;;;;1.83;66.78;95027.56;5074075;28;20191;-78
2021/01/05 09:40:34;;;;;;;24.07;15.50;;;;;;;1.89;68.10;95027.84;5084559;28;20216;-80
2021/01/05 09:43:28;;;;;;;22.63;13.93;;;;;;;1.87;70.76;95024.63;5086015;28;20212;-79
2021/01/05 09:45:54;;;;;;;22.17;13.40;;;;;;;1.84;67.94;95014.75;5073126;28;20188;-79
2021/01/05 09:48:21;;;;;;;21.90;14.60;;;;;;;1.89;67.86;95017.69;5077639;28;20196;-79
2021/01/05 09:50:47;;;;;;;24.40;14.40;;;;;;;1.91;67.40;95010.75;5081446;28;20191;-78
2021/01/05 09:53:14;;;;;;;19.97;13.27;;;;;;;1.91;67.14;95012.47;5088917;28;20301;-80
2021/01/05 09:55:40;;;;;;;19.27;13.03;;;;;;;1.84;67.60;95019.84;5072215;28;20234;-79
2021/01/05 09:58:07;;;;;;;40.67;26.20;;;;;;;1.87;67.80;95014.47;5079107;28;20283;-80
2021/01/05 10:00:34;;;;;;;30.23;19.00;;;;;;;1.88;67.29;95015.28;5072261;28;20212;-79
2021/01/05 10:03:00;;;;;;;24.97;15.37;;;;;;;1.95;67.01;95013.78;5073971;28;20266;-78
2021/01/05 10:05:26;;;;;;;21.17;14.03;;;;;;;1.94;67.17;95007.91;5070381;28;20711;-80
2021/01/05 10:07:52;;;;;;;21.73;14.10;;;;;;;2.00;66.87;95004.03;5086257;28;20193;-80
2021/01/05 10:10:21;;;;;;;22.63;13.60;;;;;;;2.04;66.44;95002.81;5077015;28;20318;-79
2021/01/05 10:12:47;;;;;;;24.13;15.00;;;;;;;2.06;66.80;95006.00;5082807;28;20221;-79
2021/01/05 10:15:15;;;;;;;23.43;13.77;;;;;;;2.03;67.32;95006.28;5089043;28;20196;-80
2021/01/05 10:17:41;;;;;;;24.07;13.77;;;;;;;2.02;66.67;95005.47;5081366;28;20564;-79
2021/01/05 10:20:09;;;;;;;23.23;14.60;;;;;;;2.06;66.48;95001.72;5077012;28;20212;-78
2021/01/05 10:22:35;;;;;;;21.03;14.40;;;;;;;2.11;66.95;94996.25;5077293;28;20196;-78
2021/01/05 10:25:01;;;;;;;21.80;14.60;;;;;;;2.16;66.95;94993.25;5078635;28;20204;-78
2021/01/05 10:27:27;;;;;;;21.90;13.53;;;;;;;2.15;66.55;94987.38;5079904;28;20566;-78
2021/01/05 10:29:55;;;;;;;23.87;14.87;;;;;;;2.13;66.92;94991.81;5080847;28;20193;-80
2021/01/05 10:32:21;;;;;;;22.50;13.53;;;;;;;2.10;66.81;94994.66;5087178;28;20192;-79
2021/01/05 10:34:47;;;;;;;21.33;14.67;;;;;;;2.09;66.61;94993.03;5079367;28;20246;-79
2021/01/05 10:37:13;;;;;;;26.73;14.77;;;;;;;1.98;67.11;94986.38;5082273;28;20869;-79
2021/01/05 10:39:39;;;;;;;22.67;14.47;;;;;;;2.02;67.13;94979.28;5073594;28;20232;-78
2021/01/05 10:42:06;;;;;;;23.80;14.27;;;;;;;2.08;66.62;94984.63;5075635;28;20257;-79
2021/01/05 10:44:33;;;;;;;40.43;26.17;;;;;;;2.13;66.34;94986.72;5081632;28;20223;-79
2021/01/05 10:47:01;;;;;;;29.67;18.00;;;;;;;2.16;66.13;94986.44;5078186;28;20193;-79
2021/01/05 10:49:27;;;;;;;23.30;14.40;;;;;;;2.17;66.20;94980.44;5073279;28;20193;-80
2021/01/05 10:51:56;;;;;;;22.20;14.57;;;;;;;2.08;67.69;94979.56;5086773;28;20203;-80
2021/01/05 10:54:23;;;;;;;22.20;14.40;;;;;;;2.16;66.82;94976.28;5069766;28;20773;-79
2021/01/05 10:56:55;;;;;;;23.43;14.27;;;;;;;2.13;66.61;94978.31;5078214;28;20211;-78
2021/01/05 10:59:21;;;;;;;21.73;13.77;;;;;;;2.08;66.75;94978.75;5080626;28;20614;-79
2021/01/05 11:01:48;;;;;;;21.57;13.23;;;;;;;1.99;66.47;94980.38;5081710;28;20200;-78
2021/01/05 11:04:14;;;;;;;23.37;14.27;;;;;;;2.03;65.95;94976.63;5084629;28;20213;-79
2021/01/05 11:06:40;;;;;;;20.83;13.40;;;;;;;2.14;65.90;94975.63;5082136;28;20213;-78
2021/01/05 11:09:06;;;;;;;41.43;26.33;;;;;;;2.12;65.95;94974.19;5079745;28;20201;-80
2021/01/05 11:11:32;;;;;;;22.47;15.23;;;;;;;2.14;65.77;94968.00;5084162;28;20756;-80
2021/01/05 11:13:58;;;;;;;22.23;13.93;;;;;;;2.21;65.21;94965.72;5072204;28;20209;-79
2021/01/05 11:16:24;;;;;;;22.63;13.77;;;;;;;2.11;65.40;94960.69;5085032;28;20219;-80
2021/01/05 11:18:51;;;;;;;23.40;14.07;;;;;;;2.15;65.76;94958.66;5083146;28;20470;-79
2021/01/05 11:21:16;;;;;;;20.00;11.07;;;;;;;2.60;96.47;94959.50;5082347;28;20734;-76
2021/01/05 11:23:43;;;;;;;20.83;13.33;;;;;;;2.81;69.97;94951.59;5089207;28;20220;-80
2021/01/05 11:26:10;;;;;;;18.17;12.67;;;;;;;2.87;66.92;94953.59;5088773;28;20184;-78
2021/01/05 11:28:36;;;;;;;18.50;12.90;;;;;;;2.78;65.51;94946.81;5080647;28;20199;-79
2021/01/05 11:31:02;;;;;;;22.03;13.57;;;;;;;2.69;65.40;94951.00;5081641;28;20192;-80
2021/01/05 11:33:30;;;;;;;21.23;13.80;;;;;;;2.67;65.32;94945.28;5087937;28;20215;-79
2021/01/05 11:35:57;;;;;;;20.20;13.87;;;;;;;2.66;65.17;94942.88;5074980;28;20200;-80